Airfield :
LOGIN :

Register | Disclaimer

   EN    FR    IT 

 










Legend :    VFR   Marginal VFR   IFR   Intensive IFR   Very Intensive IFR
Visi :
Ceiling :
>= 8 km
>= 3000ft
5 to 8 km
1000 to 3000 ft
1500m to 5 km
500 to 1000 ft
800 to 1500m
200 to 500 ft
< 800m
< 200 ft
Symbols :   Thunderstorms  Fog  Heavy snow  Heavy precipitations  Wind > 20 kt
SIGMETs :     Misc.  Thunderstorms  Icing  Turbulence  Mountain Waves  Volcanic Ashes







- Airport Elevation : 915 ft
- IATA code : LUG


LSZA - Lugano

CURRENT METAR :
  • 200720Z VRB03KT CAVOK 21/06 Q1019 NOSIG

EXPIRED METARs :
  • 200650Z 02009KT 350V060 CAVOK 20/06 Q1019 NOSIG
  • 200620Z 02010KT 330V060 CAVOK 20/05 Q1019 NOSIG
  • 200550Z 02007KT 340V060 CAVOK 20/05 Q1018 NOSIG
  • 200520Z 02010KT 350V050 CAVOK 20/05 Q1018 NOSIG
  • 200450Z 36012KT CAVOK 20/04 Q1018 NOSIG

TAF TAF LSZA
Valid from the 20 at 06:00 until the 20 at 15:00 UTC


200525Z 2006/2015 01010KT CAVOK
PROB40
TEMPO 2006/2010 01015G25KT
ATIS : +41 22 417 40 88
No reported NOTAMs for that airfield.



MET'MAP, your aeronautical weather chart ! - Copyright ORBIFLY December 2007 - Disclaimer

ORBIFLY MET'MAP TEAM :

Programming & Development : Alexandra Zaïnal
Concept & Development : Baudouin d'Aumeries
Co-Development & Prog : Marc-Olivier Méhu
Technical & hardware support : Manuel Goepfert

Contact : metmap@orbifly.com




SOURCES & CREDITS :

   NOAA